Time;durP1;ratioP1;P1;durP2;ratioP2;P2;SDS_P1;SDS_P2;PMS_P1;PMS_P2;Temp;Humidity;BMP_temperature;BMP_pressure;BME280_temperature;BME280_humidity;BME280_pressure;Samples;Min_cycle;Max_cycle;Signal;HPM_P1;HPM_P2
2023/05/30 00:01:19;;;;;;;46.15;43.55;;;11.00;99.90;;;;;;4982090;28;20038;-79
2023/05/30 00:03:46;;;;;;;50.13;47.10;;;11.00;99.90;;;;;;4963410;28;20125;-76
2023/05/30 00:06:13;;;;;;;48.13;45.25;;;11.00;99.90;;;;;;4985741;28;20046;-76
2023/05/30 00:08:39;;;;;;;108.00;102.65;;;11.00;99.90;;;;;;4985685;28;20038;-79
2023/05/30 00:11:06;;;;;;;54.42;51.40;;;10.90;99.90;;;;;;4968972;28;20042;-77
2023/05/30 00:13:32;;;;;;;50.30;47.05;;;10.90;99.90;;;;;;4986560;28;20061;-80
2023/05/30 00:15:59;;;;;;;52.67;49.17;;;10.90;99.90;;;;;;4986524;28;20125;-76
2023/05/30 00:18:25;;;;;;;57.20;53.90;;;10.90;99.90;;;;;;4979564;28;21005;-76
2023/05/30 00:20:51;;;;;;;52.78;49.65;;;10.90;99.90;;;;;;4987363;28;20036;-76
2023/05/30 00:23:17;;;;;;;61.40;57.90;;;10.90;99.90;;;;;;4985792;28;20042;-76
2023/05/30 00:25:45;;;;;;;54.65;50.92;;;10.90;99.90;;;;;;4985797;28;20478;-78
2023/05/30 00:28:11;;;;;;;54.33;51.17;;;10.90;99.90;;;;;;4987287;28;20042;-76
2023/05/30 00:30:37;;;;;;;65.90;62.25;;;10.90;99.90;;;;;;4986047;28;20039;-77
2023/05/30 00:33:03;;;;;;;53.67;50.50;;;10.90;99.90;;;;;;4985675;28;20092;-76
2023/05/30 00:35:29;;;;;;;52.55;49.50;;;10.90;99.90;;;;;;4984889;28;20041;-75
2023/05/30 00:37:54;;;;;;;60.65;56.80;;;10.90;99.90;;;;;;5000727;28;20045;-76
2023/05/30 00:40:20;;;;;;;53.05;49.83;;;10.90;99.90;;;;;;4986618;28;20038;-76
2023/05/30 00:42:46;;;;;;;51.25;48.13;;;10.90;99.90;;;;;;4992838;28;20042;-77
2023/05/30 00:45:11;;;;;;;50.78;47.78;;;10.90;99.90;;;;;;4986816;28;20092;-77
2023/05/30 00:47:38;;;;;;;53.83;50.47;;;10.90;99.90;;;;;;4988368;28;20128;-77
2023/05/30 00:50:06;;;;;;;52.85;49.53;;;10.80;99.90;;;;;;4988700;28;20089;-77
2023/05/30 00:52:32;;;;;;;52.65;49.17;;;10.80;99.90;;;;;;4990209;28;20578;-80
2023/05/30 00:55:02;;;;;;;56.38;52.92;;;10.80;99.90;;;;;;4987124;28;20042;-76
2023/05/30 00:57:33;;;;;;;52.42;49.60;;;10.80;99.90;;;;;;4990541;28;20092;-78
2023/05/30 01:00:01;;;;;;;55.55;52.20;;;10.80;99.90;;;;;;4988756;28;20172;-78
2023/05/30 01:02:28;;;;;;;49.13;46.20;;;10.80;99.90;;;;;;4968828;28;20084;-76
2023/05/30 01:04:53;;;;;;;49.25;46.10;;;10.80;99.90;;;;;;4986272;28;20054;-76
2023/05/30 01:07:20;;;;;;;54.15;51.00;;;10.80;99.90;;;;;;4972388;28;20046;-75
2023/05/30 01:09:46;;;;;;;54.85;51.42;;;10.80;99.90;;;;;;4989405;28;20046;-76
2023/05/30 01:12:20;;;;;;;56.15;52.90;;;10.80;99.90;;;;;;4988119;28;20054;-75
2023/05/30 01:15:00;;;;;;;56.40;53.30;;;10.80;99.90;;;;;;4988207;28;20391;-76
2023/05/30 01:17:45;;;;;;;54.03;50.88;;;10.80;99.90;;;;;;4989178;28;20054;-78
2023/05/30 01:20:12;;;;;;;67.32;63.42;;;10.80;99.90;;;;;;4983888;28;20426;-77
2023/05/30 01:22:48;;;;;;;56.30;52.97;;;10.80;99.90;;;;;;4987600;28;20049;-75
2023/05/30 01:25:50;;;;;;;63.95;60.38;;;10.80;99.90;;;;;;4988901;28;20043;-76
2023/05/30 01:28:21;;;;;;;58.40;55.15;;;10.80;99.90;;;;;;4980712;28;20573;-75
2023/05/30 01:30:49;;;;;;;63.35;59.85;;;10.80;99.90;;;;;;4986723;28;20053;-76
2023/05/30 01:33:17;;;;;;;70.82;66.80;;;10.80;99.90;;;;;;4962304;28;20121;-76
2023/05/30 01:35:47;;;;;;;63.67;59.92;;;10.80;99.90;;;;;;4972701;28;20046;-76
2023/05/30 01:38:13;;;;;;;66.35;62.70;;;10.70;99.90;;;;;;4985278;28;20534;-76
2023/05/30 01:40:40;;;;;;;73.55;69.40;;;10.70;99.90;;;;;;4987535;28;20116;-78
2023/05/30 01:43:43;;;;;;;61.33;58.00;;;10.70;99.90;;;;;;4999945;28;20483;-76
2023/05/30 01:46:35;;;;;;;68.70;64.93;;;10.70;99.90;;;;;;5000146;28;20145;-76
2023/05/30 01:49:23;;;;;;;71.20;67.18;;;10.70;99.90;;;;;;4988846;28;20050;-76
2023/05/30 01:52:12;;;;;;;68.85;65.40;;;10.70;99.90;;;;;;4986368;28;20042;-75
2023/05/30 01:54:41;;;;;;;70.95;67.20;;;10.70;99.90;;;;;;4988205;28;20205;-76
2023/05/30 01:57:12;;;;;;;63.15;59.58;;;10.70;99.90;;;;;;4987547;28;20117;-76
2023/05/30 01:59:41;;;;;;;65.72;62.13;;;10.70;99.90;;;;;;4970620;28;20038;-76
2023/05/30 02:02:09;;;;;;;63.22;59.92;;;10.70;99.90;;;;;;4970046;28;20461;-76
2023/05/30 02:04:35;;;;;;;67.57;63.80;;;10.70;99.90;;;;;;4976984;28;20117;-75
2023/05/30 02:07:02;;;;;;;57.83;54.63;;;10.70;99.90;;;;;;4989071;28;20065;-76
2023/05/30 02:09:28;;;;;;;59.05;55.42;;;10.70;99.90;;;;;;4998176;28;20077;-75
2023/05/30 02:11:54;;;;;;;61.55;58.13;;;10.70;99.90;;;;;;4983530;28;20042;-77
2023/05/30 02:14:19;;;;;;;59.10;55.80;;;10.70;99.90;;;;;;4987742;28;20048;-76
2023/05/30 02:16:45;;;;;;;59.25;56.03;;;10.70;99.90;;;;;;4986877;28;20042;-75
2023/05/30 02:19:12;;;;;;;61.08;57.28;;;10.70;99.90;;;;;;5001539;28;20101;-77
2023/05/30 02:21:38;;;;;;;66.88;63.50;;;10.80;99.90;;;;;;4987568;28;20042;-76
2023/05/30 02:24:04;;;;;;;60.72;57.17;;;10.80;99.90;;;;;;4987732;28;20042;-76
2023/05/30 02:26:30;;;;;;;58.55;55.20;;;10.80;99.90;;;;;;4988472;28;20050;-75
2023/05/30 02:28:56;;;;;;;61.20;58.05;;;10.80;99.90;;;;;;4985565;28;20034;-76
2023/05/30 02:31:22;;;;;;;63.22;59.78;;;10.70;99.90;;;;;;4963515;28;20047;-76
2023/05/30 02:33:47;;;;;;;56.83;53.50;;;10.70;99.90;;;;;;4986268;28;20038;-76
2023/05/30 02:36:13;;;;;;;64.88;60.95;;;10.70;99.90;;;;;;4972089;28;20418;-76
2023/05/30 02:38:39;;;;;;;63.78;59.72;;;10.70;99.90;;;;;;4991798;28;20048;-76
2023/05/30 02:41:05;;;;;;;63.20;59.53;;;10.70;99.90;;;;;;4987702;28;20046;-76
2023/05/30 02:43:30;;;;;;;64.97;61.55;;;10.70;99.90;;;;;;4979004;28;20449;-76
2023/05/30 02:45:56;;;;;;;64.22;61.03;;;10.70;99.90;;;;;;4986348;28;20505;-76
2023/05/30 02:48:22;;;;;;;61.88;57.67;;;10.70;99.90;;;;;;4986772;28;20104;-76
2023/05/30 02:50:47;;;;;;;66.90;62.95;;;10.70;99.90;;;;;;4987439;28;20483;-78
2023/05/30 02:53:13;;;;;;;60.15;56.50;;;10.70;99.90;;;;;;4984838;28;20062;-76
2023/05/30 02:55:42;;;;;;;67.32;63.60;;;10.80;99.90;;;;;;4976724;28;20047;-76
2023/05/30 02:58:08;;;;;;;62.33;58.65;;;10.80;99.90;;;;;;4988408;28;20088;-76
2023/05/30 03:00:34;;;;;;;65.55;61.60;;;10.80;99.90;;;;;;4986713;28;20078;-75
2023/05/30 03:03:00;;;;;;;63.63;60.13;;;10.80;99.90;;;;;;4987344;28;20062;-77
2023/05/30 03:05:26;;;;;;;66.60;62.78;;;10.80;99.90;;;;;;4987430;28;20061;-77
2023/05/30 03:07:51;;;;;;;69.53;65.70;;;10.80;99.90;;;;;;4988285;28;20050;-75
2023/05/30 03:10:17;;;;;;;62.45;58.55;;;10.80;99.90;;;;;;4983920;28;20106;-76
2023/05/30 03:12:43;;;;;;;60.20;56.90;;;10.80;99.90;;;;;;4987274;28;20604;-76
2023/05/30 03:15:09;;;;;;;64.38;60.63;;;10.80;99.90;;;;;;4984956;28;20153;-77
2023/05/30 03:17:35;;;;;;;62.85;59.08;;;10.80;99.90;;;;;;4980851;28;20031;-76
2023/05/30 03:20:01;;;;;;;64.10;60.63;;;10.80;99.90;;;;;;4983292;28;20312;-76
2023/05/30 03:22:27;;;;;;;65.20;61.58;;;10.80;99.90;;;;;;4971585;28;20128;-76
2023/05/30 03:24:52;;;;;;;60.35;56.75;;;10.80;99.90;;;;;;4987140;28;20422;-77
2023/05/30 03:27:18;;;;;;;67.20;63.60;;;10.80;99.90;;;;;;4986468;28;20068;-77
2023/05/30 03:29:44;;;;;;;62.35;58.65;;;10.80;99.90;;;;;;4987102;28;20660;-77
2023/05/30 03:32:10;;;;;;;59.85;56.38;;;10.80;99.90;;;;;;4969462;28;20045;-76
2023/05/30 03:34:37;;;;;;;60.47;57.03;;;10.80;99.90;;;;;;4965817;28;20427;-77
2023/05/30 03:37:03;;;;;;;63.35;59.92;;;10.80;99.90;;;;;;4985836;28;20038;-77
2023/05/30 03:39:29;;;;;;;67.90;63.90;;;10.80;99.90;;;;;;4970813;28;20045;-78
2023/05/30 03:41:55;;;;;;;60.85;57.40;;;10.80;99.90;;;;;;4985588;28;20105;-76
2023/05/30 03:44:21;;;;;;;66.85;63.08;;;10.80;99.90;;;;;;4987467;28;20061;-76
2023/05/30 03:46:47;;;;;;;63.97;60.00;;;10.80;99.90;;;;;;4986312;28;20156;-79
2023/05/30 03:49:13;;;;;;;63.65;59.90;;;10.80;99.90;;;;;;4985543;28;20046;-76
2023/05/30 03:51:38;;;;;;;64.60;60.58;;;10.80;99.90;;;;;;4984879;28;20056;-77
2023/05/30 03:54:04;;;;;;;68.32;64.80;;;10.90;99.90;;;;;;4978681;28;20042;-76
2023/05/30 03:56:30;;;;;;;66.78;63.05;;;10.90;99.90;;;;;;4985696;28;20042;-76
2023/05/30 03:58:55;;;;;;;66.85;63.15;;;10.90;99.90;;;;;;4984397;28;20038;-76
2023/05/30 04:01:22;;;;;;;72.47;68.72;;;10.90;99.90;;;;;;4985200;28;20141;-76
2023/05/30 04:03:47;;;;;;;68.88;64.90;;;10.90;99.90;;;;;;4987515;28;20046;-77
2023/05/30 04:06:14;;;;;;;74.72;70.65;;;10.90;99.90;;;;;;4983585;28;20447;-76
2023/05/30 04:08:40;;;;;;;67.03;63.28;;;11.00;99.90;;;;;;4986634;28;20042;-76
2023/05/30 04:11:07;;;;;;;63.28;59.45;;;11.00;99.90;;;;;;4984920;28;20387;-76
2023/05/30 04:13:33;;;;;;;69.35;65.20;;;11.00;99.90;;;;;;4983246;28;20043;-76
2023/05/30 04:16:02;;;;;;;71.75;68.13;;;11.00;99.90;;;;;;4981046;28;20041;-76
2023/05/30 04:18:28;;;;;;;69.63;65.68;;;11.10;99.90;;;;;;4984398;28;20038;-76
2023/05/30 04:20:54;;;;;;;65.95;61.92;;;11.10;99.90;;;;;;4982154;28;20497;-75
2023/05/30 04:23:19;;;;;;;67.78;64.05;;;11.10;99.90;;;;;;4986901;28;20038;-76
2023/05/30 04:25:47;;;;;;;69.18;65.32;;;11.10;99.90;;;;;;4979937;28;20709;-76
2023/05/30 04:28:16;;;;;;;66.15;62.13;;;11.20;99.90;;;;;;4985759;28;20046;-76
2023/05/30 04:30:48;;;;;;;69.15;65.13;;;11.20;99.90;;;;;;4984880;28;20038;-77
2023/05/30 04:33:15;;;;;;;69.65;65.68;;;11.20;99.90;;;;;;4982245;28;20043;-76
2023/05/30 04:35:45;;;;;;;68.07;64.40;;;11.20;99.90;;;;;;4986440;28;20038;-76
2023/05/30 04:38:16;;;;;;;65.30;61.33;;;11.30;99.90;;;;;;4990160;28;20082;-77
2023/05/30 04:40:42;;;;;;;61.45;58.22;;;11.30;99.90;;;;;;4986304;28;20042;-76
2023/05/30 04:43:08;;;;;;;64.70;61.05;;;11.30;99.90;;;;;;4982217;28;20050;-76
2023/05/30 04:45:36;;;;;;;62.17;58.70;;;11.30;99.90;;;;;;4984694;28;20478;-77
2023/05/30 04:48:03;;;;;;;65.30;61.47;;;11.40;99.90;;;;;;4970567;28;20502;-76
2023/05/30 04:50:29;;;;;;;66.32;61.65;;;11.40;99.90;;;;;;4985132;28;20481;-76
2023/05/30 04:52:55;;;;;;;55.92;52.58;;;11.40;99.90;;;;;;4983171;28;20137;-77
2023/05/30 04:55:21;;;;;;;53.60;50.35;;;11.50;99.90;;;;;;4994259;28;20050;-76
2023/05/30 04:57:47;;;;;;;64.68;61.03;;;11.50;99.90;;;;;;4985190;28;20553;-76
2023/05/30 05:00:14;;;;;;;68.13;64.20;;;11.50;99.90;;;;;;4985021;28;20042;-77
2023/05/30 05:02:40;;;;;;;64.55;60.88;;;11.50;99.90;;;;;;4970300;28;20066;-76
2023/05/30 05:05:06;;;;;;;63.25;59.75;;;11.60;99.90;;;;;;4985376;28;20105;-77
2023/05/30 05:07:32;;;;;;;65.22;61.25;;;11.60;99.90;;;;;;4985782;28;20050;-79
2023/05/30 05:09:58;;;;;;;66.07;61.85;;;11.60;99.90;;;;;;4982307;28;20038;-76
2023/05/30 05:12:23;;;;;;;68.32;64.45;;;11.60;99.90;;;;;;4966284;28;20461;-77
2023/05/30 05:14:50;;;;;;;69.18;65.18;;;11.60;99.90;;;;;;4986478;28;20081;-77
2023/05/30 05:17:16;;;;;;;57.28;53.78;;;11.70;99.90;;;;;;4985888;28;20129;-78
2023/05/30 05:19:41;;;;;;;61.95;58.45;;;11.70;99.90;;;;;;4986030;28;20129;-76
2023/05/30 05:22:07;;;;;;;74.68;70.53;;;11.70;99.90;;;;;;4985959;28;20544;-76
2023/05/30 05:24:32;;;;;;;74.95;70.28;;;11.70;99.90;;;;;;4986283;28;20119;-77
2023/05/30 05:26:58;;;;;;;60.88;57.75;;;11.70;99.90;;;;;;4985361;28;20046;-76
2023/05/30 05:29:24;;;;;;;67.78;64.28;;;11.70;99.90;;;;;;4985794;28;20054;-77
2023/05/30 05:31:50;;;;;;;52.97;49.88;;;11.80;99.90;;;;;;4968865;28;20179;-77
2023/05/30 05:34:16;;;;;;;59.83;56.17;;;11.70;99.90;;;;;;4989380;28;20046;-76
2023/05/30 05:36:45;;;;;;;71.38;67.75;;;11.80;99.90;;;;;;4988100;28;20081;-77
2023/05/30 05:39:10;;;;;;;49.75;46.95;;;11.70;99.90;;;;;;4973699;28;20035;-77
2023/05/30 05:41:36;;;;;;;61.55;57.50;;;11.80;99.90;;;;;;4995653;28;20038;-81
2023/05/30 05:44:02;;;;;;;61.78;58.63;;;11.80;99.90;;;;;;4976955;28;20050;-76
2023/05/30 05:46:27;;;;;;;74.72;71.07;;;11.80;99.90;;;;;;4973853;28;20688;-76
2023/05/30 05:48:55;;;;;;;104.43;99.43;;;11.80;99.90;;;;;;4988779;28;20046;-76
2023/05/30 05:51:21;;;;;;;75.43;71.68;;;11.80;99.90;;;;;;4989568;28;20061;-77
2023/05/30 05:53:47;;;;;;;75.72;71.70;;;11.80;99.90;;;;;;4989757;28;20462;-76
2023/05/30 05:56:13;;;;;;;67.75;64.18;;;11.90;99.90;;;;;;4988964;28;20445;-77
2023/05/30 05:58:38;;;;;;;75.25;70.70;;;11.90;99.90;;;;;;4967014;28;20461;-77
2023/05/30 06:01:04;;;;;;;56.50;53.08;;;11.90;99.90;;;;;;4988925;28;20134;-76
2023/05/30 06:03:30;;;;;;;63.72;60.22;;;11.90;99.90;;;;;;4989145;28;20049;-75
2023/05/30 06:05:56;;;;;;;76.45;72.32;;;11.90;99.90;;;;;;4986948;28;20030;-76
2023/05/30 06:08:22;;;;;;;73.40;69.43;;;12.00;99.90;;;;;;4988537;28;20439;-76
2023/05/30 06:10:47;;;;;;;53.97;50.95;;;12.00;99.90;;;;;;4989474;28;20034;-78
2023/05/30 06:13:14;;;;;;;59.30;56.33;;;12.00;99.90;;;;;;4989103;28;20046;-77
2023/05/30 06:15:40;;;;;;;88.63;83.93;;;12.00;99.90;;;;;;4988235;28;20039;-77
2023/05/30 06:18:06;;;;;;;68.05;64.70;;;12.00;99.90;;;;;;4989797;28;20093;-76
2023/05/30 06:20:31;;;;;;;59.97;56.60;;;12.00;99.90;;;;;;4985699;28;20074;-76
2023/05/30 06:22:57;;;;;;;69.55;65.97;;;11.90;99.90;;;;;;4981504;28;20081;-76
2023/05/30 06:25:22;;;;;;;64.85;61.65;;;12.00;99.90;;;;;;4988563;28;20043;-77
2023/05/30 06:27:48;;;;;;;68.97;65.32;;;12.00;99.90;;;;;;4980110;28;20463;-76
2023/05/30 06:30:14;;;;;;;60.47;57.25;;;12.10;99.90;;;;;;4989034;28;20145;-77
2023/05/30 06:32:39;;;;;;;67.28;63.92;;;12.10;99.90;;;;;;4987747;28;20577;-77
2023/05/30 06:35:05;;;;;;;67.50;64.00;;;12.10;99.90;;;;;;4989445;28;20125;-78
2023/05/30 06:37:31;;;;;;;56.65;53.75;;;12.20;99.90;;;;;;4992116;28;20817;-77
2023/05/30 06:39:57;;;;;;;56.03;52.75;;;12.20;99.90;;;;;;4989152;28;20061;-76
2023/05/30 06:42:22;;;;;;;69.50;65.82;;;12.20;99.90;;;;;;4995378;28;20038;-76
2023/05/30 06:44:48;;;;;;;59.15;55.90;;;12.20;99.90;;;;;;4986064;28;20042;-78
2023/05/30 06:47:14;;;;;;;73.50;69.68;;;12.20;99.90;;;;;;4985975;28;20063;-76
2023/05/30 06:49:39;;;;;;;68.95;65.47;;;12.20;99.90;;;;;;4988551;28;20053;-76
2023/05/30 06:52:05;;;;;;;64.60;60.92;;;12.20;99.90;;;;;;4988495;28;20050;-76
2023/05/30 06:54:32;;;;;;;68.47;64.82;;;12.20;99.90;;;;;;4987988;28;20545;-76
2023/05/30 06:57:02;;;;;;;84.13;80.18;;;12.20;99.90;;;;;;4987744;28;20039;-76
2023/05/30 06:59:28;;;;;;;92.78;88.20;;;12.20;99.90;;;;;;5004551;28;20049;-76
2023/05/30 07:01:54;;;;;;;113.50;108.47;;;12.20;99.90;;;;;;4987915;28;20057;-77
2023/05/30 07:04:23;;;;;;;126.85;121.18;;;12.20;99.90;;;;;;4989333;28;20054;-76
2023/05/30 07:06:48;;;;;;;118.22;112.90;;;12.20;99.90;;;;;;4987637;28;20046;-77
2023/05/30 07:09:15;;;;;;;133.82;127.85;;;12.20;99.90;;;;;;4988553;28;20061;-76
2023/05/30 07:11:40;;;;;;;114.45;109.53;;;12.20;99.90;;;;;;4988755;28;20121;-76
2023/05/30 07:14:06;;;;;;;157.75;150.52;;;12.10;99.90;;;;;;4988023;28;20137;-78
2023/05/30 07:16:32;;;;;;;97.60;92.90;;;12.20;99.90;;;;;;4986929;28;20030;-78
2023/05/30 07:18:57;;;;;;;95.22;90.82;;;12.20;99.90;;;;;;4988389;28;20046;-75
2023/05/30 07:21:23;;;;;;;105.93;100.97;;;12.30;99.90;;;;;;4987997;28;20517;-76
2023/05/30 07:23:49;;;;;;;92.20;88.20;;;12.40;99.90;;;;;;4987742;28;20050;-77
2023/05/30 07:26:14;;;;;;;97.18;93.00;;;12.40;99.90;;;;;;4988042;28;20510;-76
2023/05/30 07:28:40;;;;;;;96.55;92.28;;;12.50;99.90;;;;;;4987412;28;20034;-77
2023/05/30 07:31:06;;;;;;;101.15;96.60;;;12.50;99.90;;;;;;4971855;28;20038;-77
2023/05/30 07:33:31;;;;;;;102.63;98.10;;;12.60;99.90;;;;;;4988026;28;20073;-77
2023/05/30 07:35:58;;;;;;;109.05;104.18;;;12.60;99.90;;;;;;4986717;28;20044;-76
2023/05/30 07:38:23;;;;;;;116.45;111.15;;;12.50;99.90;;;;;;4987537;28;20049;-76
2023/05/30 07:40:49;;;;;;;139.52;133.25;;;12.50;99.90;;;;;;4987484;28;20038;-77
2023/05/30 07:43:14;;;;;;;163.43;156.52;;;12.50;99.90;;;;;;4984564;28;20056;-76
2023/05/30 07:45:40;;;;;;;161.68;154.77;;;12.40;99.90;;;;;;4987442;28;20505;-77
2023/05/30 07:48:06;;;;;;;177.13;169.75;;;12.40;99.90;;;;;;4987905;28;20507;-76
2023/05/30 07:50:31;;;;;;;187.98;179.95;;;12.40;99.90;;;;;;4986279;28;20042;-76
2023/05/30 07:52:57;;;;;;;174.60;167.25;;;12.40;99.90;;;;;;4986096;28;20038;-77
2023/05/30 07:55:23;;;;;;;168.20;160.88;;;12.50;99.90;;;;;;4975857;28;20117;-76
2023/05/30 07:57:48;;;;;;;195.85;187.55;;;12.50;99.90;;;;;;4984382;28;20113;-76
2023/05/30 08:00:14;;;;;;;172.55;165.13;;;12.70;99.90;;;;;;4971271;28;20096;-77
2023/05/30 08:02:40;;;;;;;157.43;150.82;;;13.00;99.90;;;;;;4986224;28;20483;-79
2023/05/30 08:05:05;;;;;;;168.88;161.70;;;13.30;99.90;;;;;;4986250;28;20045;-76
2023/05/30 08:07:31;;;;;;;170.52;163.35;;;13.40;99.90;;;;;;4987105;28;20054;-76
2023/05/30 08:09:57;;;;;;;201.35;192.70;;;13.30;99.90;;;;;;4986842;28;20494;-77
2023/05/30 08:12:28;;;;;;;200.75;192.35;;;13.30;99.90;;;;;;4987086;28;20116;-78
2023/05/30 08:14:57;;;;;;;231.32;221.52;;;13.20;99.90;;;;;;4986036;28;20042;-78
2023/05/30 08:17:24;;;;;;;169.73;162.77;;;13.10;99.90;;;;;;4970942;28;20066;-77
2023/05/30 08:19:52;;;;;;;195.73;187.30;;;12.90;99.90;;;;;;4986496;28;20398;-75
2023/05/30 08:22:21;;;;;;;167.65;160.77;;;12.80;99.90;;;;;;4986768;28;20046;-78
2023/05/30 08:24:54;;;;;;;163.27;156.60;;;12.80;99.90;;;;;;4986150;28;20046;-77
2023/05/30 08:27:21;;;;;;;193.45;185.55;;;12.80;99.90;;;;;;5002285;28;20097;-77
2023/05/30 08:29:48;;;;;;;186.50;178.90;;;12.80;99.90;;;;;;4986769;28;20521;-77
2023/05/30 08:32:14;;;;;;;219.07;210.00;;;12.90;99.90;;;;;;4986028;28;20054;-78
2023/05/30 08:34:40;;;;;;;191.77;184.10;;;13.10;99.90;;;;;;4986548;28;20042;-76
2023/05/30 08:37:06;;;;;;;187.55;179.82;;;13.30;99.90;;;;;;4985716;28;20049;-73
2023/05/30 08:39:33;;;;;;;164.15;157.48;;;13.40;99.90;;;;;;4986822;28;20657;-73
2023/05/30 08:41:59;;;;;;;179.18;171.27;;;13.60;99.90;;;;;;4995178;28;20057;-75
2023/05/30 08:44:25;;;;;;;140.43;134.35;;;13.80;99.90;;;;;;4966771;28;20046;-74
2023/05/30 08:46:51;;;;;;;68.00;65.13;;;13.80;99.90;;;;;;4986314;28;20053;-75
2023/05/30 08:49:21;;;;;;;67.68;64.80;;;13.80;99.90;;;;;;4986268;28;20057;-77
2023/05/30 08:51:48;;;;;;;83.30;79.75;;;13.80;99.90;;;;;;4983663;28;20410;-75
2023/05/30 08:54:25;;;;;;;68.32;65.35;;;13.90;99.90;;;;;;4987189;28;20530;-77
2023/05/30 08:57:14;;;;;;;50.40;48.13;;;13.90;99.90;;;;;;4987091;28;20117;-74
2023/05/30 08:59:40;;;;;;;34.03;32.40;;;14.00;99.90;;;;;;4985117;28;20100;-77
2023/05/30 09:02:07;;;;;;;65.13;62.25;;;14.20;99.90;;;;;;4986154;28;20085;-74
2023/05/30 09:04:34;;;;;;;33.40;31.80;;;14.70;99.90;;;;;;5002220;28;20050;-76
2023/05/30 09:07:02;;;;;;;26.33;24.98;;;15.30;99.90;;;;;;4986111;28;20046;-74
2023/05/30 09:09:32;;;;;;;26.15;24.83;;;15.40;99.90;;;;;;4990481;28;20054;-73
2023/05/30 09:11:58;;;;;;;31.48;29.88;;;15.40;99.90;;;;;;4988701;28;20138;-78
2023/05/30 09:14:23;;;;;;;30.80;29.25;;;15.30;99.90;;;;;;4990667;28;20524;-78
2023/05/30 09:16:49;;;;;;;46.45;44.20;;;15.40;99.90;;;;;;4989104;28;20038;-76
2023/05/30 09:19:15;;;;;;;24.15;22.85;;;15.60;99.90;;;;;;4990069;28;20035;-75
2023/05/30 09:21:41;;;;;;;27.25;25.85;;;15.70;99.90;;;;;;4990417;28;20054;-79
2023/05/30 09:24:07;;;;;;;27.45;26.05;;;15.70;99.90;;;;;;4988818;28;20080;-76
2023/05/30 09:26:32;;;;;;;30.95;29.42;;;15.60;99.90;;;;;;4973925;28;20136;-74
2023/05/30 09:29:08;;;;;;;30.33;28.83;;;15.60;99.90;;;;;;4972489;28;20578;-74
2023/05/30 09:31:35;;;;;;;28.05;26.63;;;15.50;99.90;;;;;;4984670;28;20407;-74
2023/05/30 09:34:02;;;;;;;35.30;33.60;;;15.50;99.90;;;;;;4989803;28;20050;-76
2023/05/30 09:36:28;;;;;;;30.67;29.05;;;15.40;99.90;;;;;;4989075;28;20373;-74
2023/05/30 09:39:02;;;;;;;26.40;25.08;;;15.10;99.90;;;;;;4992407;28;20042;-75
2023/05/30 09:41:28;;;;;;;56.97;54.47;;;15.10;99.90;;;;;;4995152;28;20068;-76
2023/05/30 09:43:56;;;;;;;32.47;30.83;;;15.10;99.90;;;;;;4977845;28;20049;-74
2023/05/30 09:46:26;;;;;;;43.08;41.10;;;15.10;99.90;;;;;;4990315;28;20077;-76
2023/05/30 09:48:52;;;;;;;52.05;49.65;;;15.00;99.90;;;;;;4988339;28;20149;-76
2023/05/30 09:51:21;;;;;;;85.82;82.10;;;14.80;99.90;;;;;;4972931;28;20232;-76
2023/05/30 09:54:00;;;;;;;73.38;70.25;;;14.60;99.90;;;;;;4988957;28;20459;-75
2023/05/30 09:56:35;;;;;;;74.45;71.20;;;14.40;99.90;;;;;;4987930;28;20411;-75
2023/05/30 09:59:02;;;;;;;57.80;55.25;;;14.30;99.90;;;;;;4989222;28;20606;-75
2023/05/30 10:01:38;;;;;;;78.18;74.70;;;14.30;99.90;;;;;;4989532;28;20050;-74
2023/05/30 10:04:11;;;;;;;51.75;49.35;;;14.30;99.90;;;;;;4989379;28;20042;-75
2023/05/30 10:06:40;;;;;;;36.63;34.85;;;14.30;99.90;;;;;;4988924;28;20507;-75
2023/05/30 10:09:07;;;;;;;34.65;32.88;;;14.40;99.90;;;;;;4989241;28;20513;-73
2023/05/30 10:11:33;;;;;;;36.30;34.60;;;14.50;99.90;;;;;;4988304;28;20126;-75
2023/05/30 10:13:59;;;;;;;36.85;34.97;;;14.60;99.90;;;;;;4989585;28;20043;-74
2023/05/30 10:16:28;;;;;;;28.90;27.40;;;14.70;99.90;;;;;;4989248;28;20085;-76
2023/05/30 10:18:56;;;;;;;30.67;29.23;;;14.70;99.90;;;;;;4987324;28;20371;-78
2023/05/30 10:21:22;;;;;;;31.80;30.30;;;14.70;99.90;;;;;;4989076;28;20046;-76
2023/05/30 10:23:51;;;;;;;33.45;31.73;;;14.60;99.90;;;;;;4989171;28;20036;-75
2023/05/30 10:26:20;;;;;;;38.55;36.70;;;14.50;99.90;;;;;;4989365;28;20112;-77
2023/05/30 10:28:48;;;;;;;34.15;32.35;;;14.50;99.90;;;;;;4988315;28;20096;-74
2023/05/30 10:31:14;;;;;;;36.38;34.65;;;14.50;99.90;;;;;;4988445;28;20514;-74
2023/05/30 10:33:43;;;;;;;56.88;54.10;;;14.40;99.90;;;;;;4989120;28;20040;-75
2023/05/30 10:36:09;;;;;;;49.00;46.75;;;14.50;99.90;;;;;;4989085;28;20475;-76
2023/05/30 10:38:44;;;;;;;33.67;31.88;;;14.50;99.90;;;;;;4990134;28;20026;-76
2023/05/30 10:41:37;;;;;;;39.53;37.55;;;14.50;99.90;;;;;;4990300;28;20038;-75
2023/05/30 10:44:28;;;;;;;28.20;26.77;;;14.60;99.90;;;;;;4991439;28;20493;-75
2023/05/30 10:47:24;;;;;;;26.70;25.20;;;14.70;99.90;;;;;;4988654;28;20046;-76
2023/05/30 10:49:54;;;;;;;27.85;26.33;;;14.70;99.90;;;;;;5002187;28;20045;-76
2023/05/30 10:52:30;;;;;;;25.63;24.23;;;14.70;99.90;;;;;;4988218;28;20129;-75
2023/05/30 10:54:55;;;;;;;32.20;30.60;;;14.90;99.90;;;;;;4988091;28;20031;-75
2023/05/30 10:57:23;;;;;;;34.78;33.10;;;15.00;99.90;;;;;;4988653;28;20125;-74
2023/05/30 10:59:50;;;;;;;30.20;28.70;;;15.10;99.90;;;;;;4981016;28;20120;-75
2023/05/30 11:02:20;;;;;;;35.28;33.17;;;15.20;99.90;;;;;;4980831;28;20051;-76
2023/05/30 11:04:51;;;;;;;37.38;35.53;;;15.30;99.90;;;;;;4980987;28;20510;-75
2023/05/30 11:07:17;;;;;;;36.25;34.42;;;15.30;99.90;;;;;;4985648;28;20499;-75
2023/05/30 11:10:04;;;;;;;40.03;37.83;;;15.30;99.90;;;;;;4984689;28;20088;-78
2023/05/30 11:12:30;;;;;;;40.58;38.72;;;15.40;99.90;;;;;;4979695;28;20511;-77
2023/05/30 11:14:57;;;;;;;47.00;44.88;;;15.50;99.90;;;;;;4995606;28;20046;-76
2023/05/30 11:17:37;;;;;;;44.45;42.35;;;15.60;99.90;;;;;;4978240;28;20233;-76
2023/05/30 11:20:20;;;;;;;51.88;49.55;;;15.70;99.90;;;;;;4981187;28;20050;-76
2023/05/30 11:23:01;;;;;;;56.03;53.20;;;15.60;99.90;;;;;;4975131;28;20050;-75
2023/05/30 11:25:29;;;;;;;57.13;54.58;;;15.40;99.90;;;;;;4979560;28;20046;-75
2023/05/30 11:28:04;;;;;;;66.03;63.15;;;15.10;99.90;;;;;;4983562;28;20412;-76
2023/05/30 11:30:37;;;;;;;60.58;57.75;;;14.90;99.90;;;;;;4986260;28;20050;-74
2023/05/30 11:33:03;;;;;;;85.20;81.53;;;14.70;99.90;;;;;;4987966;28;20049;-75
2023/05/30 11:35:31;;;;;;;82.55;79.07;;;14.50;99.90;;;;;;4987609;28;20042;-75
2023/05/30 11:37:57;;;;;;;99.50;95.28;;;14.50;99.90;;;;;;4990005;28;20048;-77
2023/05/30 11:40:26;;;;;;;78.03;74.70;;;14.60;99.90;;;;;;4988006;28;20042;-75
2023/05/30 11:42:55;;;;;;;73.32;70.13;;;14.80;99.90;;;;;;4987015;28;20042;-76
2023/05/30 11:45:29;;;;;;;60.33;57.70;;;14.80;99.90;;;;;;4987652;28;20219;-75
2023/05/30 11:48:08;;;;;;;73.03;69.72;;;14.90;99.90;;;;;;4968714;28;20042;-79
2023/05/30 11:50:41;;;;;;;59.05;56.45;;;15.00;99.90;;;;;;4980265;28;20042;-75
2023/05/30 11:53:14;;;;;;;74.82;71.53;;;15.10;99.90;;;;;;4964728;28;20038;-74
2023/05/30 11:55:45;;;;;;;48.72;46.38;;;15.30;99.90;;;;;;4987185;28;20458;-78
2023/05/30 11:58:11;;;;;;;44.47;42.40;;;15.40;99.90;;;;;;4983973;28;20097;-76
2023/05/30 12:00:41;;;;;;;50.92;48.65;;;15.40;99.90;;;;;;4987160;28;20038;-76
2023/05/30 12:03:08;;;;;;;43.03;41.10;;;15.40;99.90;;;;;;4986597;28;20053;-75
2023/05/30 12:05:34;;;;;;;67.65;64.72;;;15.30;99.90;;;;;;4981822;28;20047;-77
2023/05/30 12:08:05;;;;;;;67.45;64.55;;;15.30;99.90;;;;;;4967094;28;20069;-78
2023/05/30 12:10:30;;;;;;;52.03;49.72;;;15.40;99.90;;;;;;4986037;28;20568;-77
2023/05/30 12:12:56;;;;;;;57.30;54.80;;;15.60;99.90;;;;;;4987592;28;20093;-76
2023/05/30 12:15:22;;;;;;;58.30;55.72;;;15.70;99.90;;;;;;4985535;28;20525;-75
2023/05/30 12:17:51;;;;;;;91.30;87.28;;;15.90;99.90;;;;;;4965499;28;20038;-76
2023/05/30 12:20:17;;;;;;;51.70;49.38;;;16.10;99.90;;;;;;4986847;28;20378;-78
2023/05/30 12:22:44;;;;;;;77.05;73.63;;;16.20;99.90;;;;;;4983001;28;20050;-76
2023/05/30 12:25:10;;;;;;;53.65;51.25;;;16.40;99.90;;;;;;4986835;28;20169;-77
2023/05/30 12:27:44;;;;;;;31.27;29.77;;;16.50;99.90;;;;;;4986417;28;20129;-75
2023/05/30 12:30:10;;;;;;;;;;;16.70;99.90;;;;;;4985639;28;20066;-76